sensor_id;sensor_type;location;lat;lon;timestamp;P1;durP1;ratioP1;P2;durP2;ratioP2
71046;SDS011;58703;48.978;8.982;2022-08-01T00:00:39;2.37;;;1.47;;
71046;SDS011;58703;48.978;8.982;2022-08-01T00:03:05;1.60;;;1.50;;
71046;SDS011;58703;48.978;8.982;2022-08-01T00:05:31;1.67;;;1.37;;
71046;SDS011;58703;48.978;8.982;2022-08-01T00:07:56;2.88;;;1.70;;
71046;SDS011;58703;48.978;8.982;2022-08-01T00:10:22;1.57;;;1.20;;
71046;SDS011;58703;48.978;8.982;2022-08-01T00:12:48;3.78;;;2.30;;
71046;SDS011;58703;48.978;8.982;2022-08-01T00:15:15;2.10;;;1.40;;
71046;SDS011;58703;48.978;8.982;2022-08-01T00:17:41;2.22;;;1.70;;
71046;SDS011;58703;48.978;8.982;2022-08-01T00:20:10;8.57;;;2.38;;
71046;SDS011;58703;48.978;8.982;2022-08-01T00:22:37;2.35;;;1.70;;
71046;SDS011;58703;48.978;8.982;2022-08-01T00:25:03;2.67;;;1.80;;
71046;SDS011;58703;48.978;8.982;2022-08-01T00:27:31;5.75;;;1.58;;
71046;SDS011;58703;48.978;8.982;2022-08-01T00:29:57;4.82;;;1.40;;
71046;SDS011;58703;48.978;8.982;2022-08-01T00:32:23;1.70;;;1.52;;
71046;SDS011;58703;48.978;8.982;2022-08-01T00:34:50;2.15;;;1.60;;
71046;SDS011;58703;48.978;8.982;2022-08-01T00:37:16;2.67;;;1.57;;
71046;SDS011;58703;48.978;8.982;2022-08-01T00:39:42;3.08;;;1.65;;
71046;SDS011;58703;48.978;8.982;2022-08-01T00:42:11;4.85;;;1.60;;
71046;SDS011;58703;48.978;8.982;2022-08-01T00:44:38;3.50;;;1.90;;
71046;SDS011;58703;48.978;8.982;2022-08-01T00:47:05;3.20;;;1.93;;
71046;SDS011;58703;48.978;8.982;2022-08-01T00:49:31;2.60;;;1.80;;
71046;SDS011;58703;48.978;8.982;2022-08-01T00:51:57;2.45;;;1.75;;
71046;SDS011;58703;48.978;8.982;2022-08-01T00:54:24;2.10;;;1.38;;
71046;SDS011;58703;48.978;8.982;2022-08-01T00:56:51;2.50;;;1.83;;
71046;SDS011;58703;48.978;8.982;2022-08-01T00:59:17;1.87;;;1.60;;
71046;SDS011;58703;48.978;8.982;2022-08-01T01:01:45;3.33;;;1.92;;
71046;SDS011;58703;48.978;8.982;2022-08-01T01:04:10;4.05;;;2.00;;
71046;SDS011;58703;48.978;8.982;2022-08-01T01:09:27;2.08;;;1.60;;
71046;SDS011;58703;48.978;8.982;2022-08-01T01:12:20;2.58;;;1.95;;
71046;SDS011;58703;48.978;8.982;2022-08-01T01:15:07;3.57;;;1.60;;
71046;SDS011;58703;48.978;8.982;2022-08-01T01:17:39;2.72;;;1.70;;
71046;SDS011;58703;48.978;8.982;2022-08-01T01:20:12;2.10;;;1.90;;
71046;SDS011;58703;48.978;8.982;2022-08-01T01:25:46;5.05;;;1.92;;
71046;SDS011;58703;48.978;8.982;2022-08-01T01:30:51;3.38;;;1.90;;
71046;SDS011;58703;48.978;8.982;2022-08-01T01:33:21;1.88;;;1.77;;
71046;SDS011;58703;48.978;8.982;2022-08-01T01:35:56;1.88;;;1.67;;
71046;SDS011;58703;48.978;8.982;2022-08-01T01:38:26;1.85;;;1.50;;
71046;SDS011;58703;48.978;8.982;2022-08-01T01:40:55;2.00;;;1.50;;
71046;SDS011;58703;48.978;8.982;2022-08-01T01:43:22;3.25;;;1.80;;
71046;SDS011;58703;48.978;8.982;2022-08-01T01:45:50;4.70;;;2.05;;
71046;SDS011;58703;48.978;8.982;2022-08-01T01:48:17;4.03;;;1.90;;
71046;SDS011;58703;48.978;8.982;2022-08-01T01:50:45;2.53;;;2.13;;
71046;SDS011;58703;48.978;8.982;2022-08-01T01:53:12;4.67;;;2.30;;
71046;SDS011;58703;48.978;8.982;2022-08-01T01:55:40;2.08;;;1.70;;
71046;SDS011;58703;48.978;8.982;2022-08-01T01:58:08;2.63;;;1.95;;
71046;SDS011;58703;48.978;8.982;2022-08-01T02:00:38;4.65;;;2.20;;
71046;SDS011;58703;48.978;8.982;2022-08-01T02:03:06;2.25;;;2.03;;
71046;SDS011;58703;48.978;8.982;2022-08-01T02:05:34;3.27;;;2.10;;
71046;SDS011;58703;48.978;8.982;2022-08-01T02:08:02;2.97;;;2.10;;
71046;SDS011;58703;48.978;8.982;2022-08-01T02:10:29;2.55;;;1.70;;
71046;SDS011;58703;48.978;8.982;2022-08-01T02:12:57;4.10;;;2.08;;
71046;SDS011;58703;48.978;8.982;2022-08-01T02:15:25;2.63;;;2.08;;
71046;SDS011;58703;48.978;8.982;2022-08-01T02:17:53;3.83;;;1.93;;
71046;SDS011;58703;48.978;8.982;2022-08-01T02:20:21;3.45;;;2.08;;
71046;SDS011;58703;48.978;8.982;2022-08-01T02:23:07;2.40;;;2.10;;
71046;SDS011;58703;48.978;8.982;2022-08-01T02:25:42;2.10;;;1.90;;
71046;SDS011;58703;48.978;8.982;2022-08-01T02:28:14;4.60;;;2.28;;
71046;SDS011;58703;48.978;8.982;2022-08-01T02:30:44;2.53;;;2.23;;
71046;SDS011;58703;48.978;8.982;2022-08-01T02:33:15;3.30;;;1.92;;
71046;SDS011;58703;48.978;8.982;2022-08-01T02:35:45;2.28;;;2.17;;
71046;SDS011;58703;48.978;8.982;2022-08-01T02:38:15;4.50;;;2.20;;
71046;SDS011;58703;48.978;8.982;2022-08-01T02:40:43;2.28;;;2.05;;
71046;SDS011;58703;48.978;8.982;2022-08-01T02:43:12;2.30;;;2.10;;
71046;SDS011;58703;48.978;8.982;2022-08-01T02:45:43;2.40;;;2.20;;
71046;SDS011;58703;48.978;8.982;2022-08-01T02:48:13;2.50;;;2.20;;
71046;SDS011;58703;48.978;8.982;2022-08-01T02:50:42;2.50;;;2.30;;
71046;SDS011;58703;48.978;8.982;2022-08-01T02:53:09;3.47;;;2.60;;
71046;SDS011;58703;48.978;8.982;2022-08-01T02:55:41;2.13;;;1.83;;
71046;SDS011;58703;48.978;8.982;2022-08-01T02:58:10;3.15;;;2.13;;
71046;SDS011;58703;48.978;8.982;2022-08-01T03:00:38;4.07;;;2.40;;
71046;SDS011;58703;48.978;8.982;2022-08-01T03:03:06;2.67;;;2.47;;
71046;SDS011;58703;48.978;8.982;2022-08-01T03:05:33;3.72;;;1.98;;
71046;SDS011;58703;48.978;8.982;2022-08-01T03:08:00;4.53;;;2.23;;
71046;SDS011;58703;48.978;8.982;2022-08-01T03:10:28;2.80;;;2.60;;
71046;SDS011;58703;48.978;8.982;2022-08-01T03:12:55;2.55;;;2.05;;
71046;SDS011;58703;48.978;8.982;2022-08-01T03:15:24;2.90;;;2.63;;
71046;SDS011;58703;48.978;8.982;2022-08-01T03:17:52;4.35;;;2.60;;
71046;SDS011;58703;48.978;8.982;2022-08-01T03:20:20;6.47;;;2.83;;
71046;SDS011;58703;48.978;8.982;2022-08-01T03:22:50;4.80;;;3.08;;
71046;SDS011;58703;48.978;8.982;2022-08-01T03:25:18;2.75;;;2.55;;
71046;SDS011;58703;48.978;8.982;2022-08-01T03:27:45;3.97;;;2.95;;
71046;SDS011;58703;48.978;8.982;2022-08-01T03:30:20;2.72;;;2.53;;
71046;SDS011;58703;48.978;8.982;2022-08-01T03:32:49;5.83;;;2.50;;
71046;SDS011;58703;48.978;8.982;2022-08-01T03:35:15;3.58;;;2.55;;
71046;SDS011;58703;48.978;8.982;2022-08-01T03:37:42;2.45;;;2.20;;
71046;SDS011;58703;48.978;8.982;2022-08-01T03:40:14;2.88;;;2.30;;
71046;SDS011;58703;48.978;8.982;2022-08-01T03:42:47;2.83;;;2.53;;
71046;SDS011;58703;48.978;8.982;2022-08-01T03:45:15;4.10;;;2.40;;
71046;SDS011;58703;48.978;8.982;2022-08-01T03:47:46;3.42;;;2.30;;
71046;SDS011;58703;48.978;8.982;2022-08-01T03:50:14;2.60;;;2.40;;
71046;SDS011;58703;48.978;8.982;2022-08-01T03:52:42;3.38;;;2.33;;
71046;SDS011;58703;48.978;8.982;2022-08-01T03:55:10;3.22;;;2.60;;
71046;SDS011;58703;48.978;8.982;2022-08-01T03:57:37;2.80;;;2.30;;
71046;SDS011;58703;48.978;8.982;2022-08-01T04:00:04;3.85;;;2.97;;
71046;SDS011;58703;48.978;8.982;2022-08-01T04:02:34;3.83;;;2.45;;
71046;SDS011;58703;48.978;8.982;2022-08-01T04:05:02;3.03;;;2.50;;
71046;SDS011;58703;48.978;8.982;2022-08-01T04:07:32;4.05;;;2.85;;
71046;SDS011;58703;48.978;8.982;2022-08-01T04:10:01;6.77;;;2.73;;
71046;SDS011;58703;48.978;8.982;2022-08-01T04:12:26;3.00;;;2.50;;
71046;SDS011;58703;48.978;8.982;2022-08-01T04:14:53;3.27;;;2.97;;
71046;SDS011;58703;48.978;8.982;2022-08-01T04:17:20;4.57;;;2.50;;
71046;SDS011;58703;48.978;8.982;2022-08-01T04:19:47;2.88;;;2.60;;
71046;SDS011;58703;48.978;8.982;2022-08-01T04:22:13;3.38;;;2.58;;
71046;SDS011;58703;48.978;8.982;2022-08-01T04:24:44;8.13;;;2.60;;
71046;SDS011;58703;48.978;8.982;2022-08-01T04:27:17;3.20;;;2.47;;
71046;SDS011;58703;48.978;8.982;2022-08-01T04:29:46;4.88;;;2.90;;
71046;SDS011;58703;48.978;8.982;2022-08-01T04:32:15;4.22;;;2.45;;
71046;SDS011;58703;48.978;8.982;2022-08-01T04:34:44;4.18;;;2.38;;
71046;SDS011;58703;48.978;8.982;2022-08-01T04:37:14;2.57;;;2.37;;
71046;SDS011;58703;48.978;8.982;2022-08-01T04:39:43;3.45;;;2.38;;
71046;SDS011;58703;48.978;8.982;2022-08-01T04:42:11;2.60;;;2.28;;
71046;SDS011;58703;48.978;8.982;2022-08-01T04:44:40;2.47;;;2.28;;
71046;SDS011;58703;48.978;8.982;2022-08-01T04:47:06;2.45;;;2.25;;
71046;SDS011;58703;48.978;8.982;2022-08-01T04:49:33;3.10;;;2.40;;
71046;SDS011;58703;48.978;8.982;2022-08-01T04:51:59;2.88;;;2.65;;
71046;SDS011;58703;48.978;8.982;2022-08-01T04:54:28;2.40;;;2.20;;
71046;SDS011;58703;48.978;8.982;2022-08-01T04:56:58;3.67;;;2.53;;
71046;SDS011;58703;48.978;8.982;2022-08-01T04:59:31;4.18;;;2.17;;
71046;SDS011;58703;48.978;8.982;2022-08-01T05:04:41;2.70;;;2.45;;
71046;SDS011;58703;48.978;8.982;2022-08-01T05:07:08;5.38;;;2.63;;
71046;SDS011;58703;48.978;8.982;2022-08-01T05:09:34;3.30;;;2.53;;
71046;SDS011;58703;48.978;8.982;2022-08-01T05:12:04;2.80;;;2.60;;
71046;SDS011;58703;48.978;8.982;2022-08-01T05:14:31;2.55;;;2.35;;
71046;SDS011;58703;48.978;8.982;2022-08-01T05:16:57;2.35;;;1.90;;
71046;SDS011;58703;48.978;8.982;2022-08-01T05:19:32;2.50;;;2.30;;
71046;SDS011;58703;48.978;8.982;2022-08-01T05:22:01;3.03;;;2.40;;
71046;SDS011;58703;48.978;8.982;2022-08-01T05:24:41;2.40;;;2.20;;
71046;SDS011;58703;48.978;8.982;2022-08-01T05:27:08;2.85;;;2.40;;
71046;SDS011;58703;48.978;8.982;2022-08-01T05:29:35;2.47;;;2.30;;
71046;SDS011;58703;48.978;8.982;2022-08-01T05:32:01;3.50;;;2.38;;
71046;SDS011;58703;48.978;8.982;2022-08-01T05:34:26;2.80;;;2.03;;
71046;SDS011;58703;48.978;8.982;2022-08-01T05:36:52;3.47;;;2.25;;
71046;SDS011;58703;48.978;8.982;2022-08-01T05:39:18;3.43;;;2.57;;
71046;SDS011;58703;48.978;8.982;2022-08-01T05:41:43;5.25;;;2.63;;
71046;SDS011;58703;48.978;8.982;2022-08-01T05:44:09;2.70;;;2.23;;
71046;SDS011;58703;48.978;8.982;2022-08-01T05:46:35;2.92;;;2.38;;
71046;SDS011;58703;48.978;8.982;2022-08-01T05:49:02;5.22;;;2.60;;
71046;SDS011;58703;48.978;8.982;2022-08-01T05:51:29;4.53;;;2.70;;
71046;SDS011;58703;48.978;8.982;2022-08-01T05:53:55;2.53;;;2.25;;
71046;SDS011;58703;48.978;8.982;2022-08-01T05:56:22;2.78;;;2.30;;
71046;SDS011;58703;48.978;8.982;2022-08-01T05:58:48;3.90;;;1.90;;
71046;SDS011;58703;48.978;8.982;2022-08-01T06:01:16;2.67;;;2.15;;
71046;SDS011;58703;48.978;8.982;2022-08-01T06:03:42;5.47;;;2.10;;
71046;SDS011;58703;48.978;8.982;2022-08-01T06:06:08;2.80;;;1.80;;
71046;SDS011;58703;48.978;8.982;2022-08-01T06:08:34;2.20;;;2.00;;
71046;SDS011;58703;48.978;8.982;2022-08-01T06:10:59;3.70;;;2.30;;
71046;SDS011;58703;48.978;8.982;2022-08-01T06:13:25;4.43;;;1.77;;
71046;SDS011;58703;48.978;8.982;2022-08-01T06:15:51;2.15;;;1.95;;
71046;SDS011;58703;48.978;8.982;2022-08-01T06:18:17;2.03;;;1.77;;
71046;SDS011;58703;48.978;8.982;2022-08-01T06:20:43;3.15;;;1.70;;
71046;SDS011;58703;48.978;8.982;2022-08-01T06:23:08;2.53;;;1.83;;
71046;SDS011;58703;48.978;8.982;2022-08-01T06:25:34;4.63;;;1.60;;
71046;SDS011;58703;48.978;8.982;2022-08-01T06:28:00;2.30;;;1.77;;
71046;SDS011;58703;48.978;8.982;2022-08-01T06:30:26;2.88;;;1.90;;
71046;SDS011;58703;48.978;8.982;2022-08-01T06:32:52;1.80;;;1.70;;
71046;SDS011;58703;48.978;8.982;2022-08-01T06:35:21;2.20;;;2.00;;
71046;SDS011;58703;48.978;8.982;2022-08-01T06:37:47;1.70;;;1.58;;
71046;SDS011;58703;48.978;8.982;2022-08-01T06:40:14;1.88;;;1.40;;
71046;SDS011;58703;48.978;8.982;2022-08-01T06:42:40;2.10;;;1.45;;
71046;SDS011;58703;48.978;8.982;2022-08-01T06:45:07;3.20;;;1.33;;
71046;SDS011;58703;48.978;8.982;2022-08-01T06:47:34;1.40;;;1.30;;
71046;SDS011;58703;48.978;8.982;2022-08-01T06:50:01;2.67;;;1.60;;
71046;SDS011;58703;48.978;8.982;2022-08-01T06:52:27;1.77;;;1.67;;
71046;SDS011;58703;48.978;8.982;2022-08-01T06:54:53;3.97;;;1.90;;
71046;SDS011;58703;48.978;8.982;2022-08-01T06:57:18;1.85;;;1.50;;
71046;SDS011;58703;48.978;8.982;2022-08-01T06:59:44;2.00;;;1.30;;
71046;SDS011;58703;48.978;8.982;2022-08-01T07:02:10;4.00;;;1.73;;
71046;SDS011;58703;48.978;8.982;2022-08-01T07:04:35;1.92;;;1.70;;
71046;SDS011;58703;48.978;8.982;2022-08-01T07:07:01;3.30;;;1.50;;
71046;SDS011;58703;48.978;8.982;2022-08-01T07:09:27;1.30;;;1.20;;
71046;SDS011;58703;48.978;8.982;2022-08-01T07:11:53;3.67;;;1.50;;
71046;SDS011;58703;48.978;8.982;2022-08-01T07:14:20;1.92;;;1.70;;
71046;SDS011;58703;48.978;8.982;2022-08-01T07:16:46;1.80;;;1.40;;
71046;SDS011;58703;48.978;8.982;2022-08-01T07:19:12;3.08;;;1.52;;
71046;SDS011;58703;48.978;8.982;2022-08-01T07:21:38;2.67;;;1.70;;
71046;SDS011;58703;48.978;8.982;2022-08-01T07:24:04;2.03;;;1.70;;
71046;SDS011;58703;48.978;8.982;2022-08-01T07:26:30;4.35;;;1.83;;
71046;SDS011;58703;48.978;8.982;2022-08-01T07:28:56;2.60;;;1.10;;
71046;SDS011;58703;48.978;8.982;2022-08-01T07:31:22;2.67;;;1.17;;
71046;SDS011;58703;48.978;8.982;2022-08-01T07:33:48;1.83;;;1.50;;
71046;SDS011;58703;48.978;8.982;2022-08-01T07:36:17;4.50;;;1.60;;
71046;SDS011;58703;48.978;8.982;2022-08-01T07:38:44;1.98;;;1.55;;
71046;SDS011;58703;48.978;8.982;2022-08-01T07:41:10;4.47;;;1.70;;
71046;SDS011;58703;48.978;8.982;2022-08-01T07:43:36;2.10;;;1.92;;
71046;SDS011;58703;48.978;8.982;2022-08-01T07:46:02;1.50;;;1.30;;
71046;SDS011;58703;48.978;8.982;2022-08-01T07:48:28;1.70;;;1.50;;
71046;SDS011;58703;48.978;8.982;2022-08-01T07:50:54;2.27;;;1.33;;
71046;SDS011;58703;48.978;8.982;2022-08-01T07:53:20;2.65;;;1.55;;
71046;SDS011;58703;48.978;8.982;2022-08-01T07:55:46;2.47;;;1.40;;
71046;SDS011;58703;48.978;8.982;2022-08-01T07:58:12;2.13;;;1.93;;
71046;SDS011;58703;48.978;8.982;2022-08-01T08:00:37;2.97;;;1.40;;
71046;SDS011;58703;48.978;8.982;2022-08-01T08:03:03;3.13;;;1.60;;
71046;SDS011;58703;48.978;8.982;2022-08-01T08:05:29;3.40;;;1.25;;
71046;SDS011;58703;48.978;8.982;2022-08-01T08:07:54;1.50;;;1.20;;
71046;SDS011;58703;48.978;8.982;2022-08-01T08:10:20;2.60;;;1.58;;
71046;SDS011;58703;48.978;8.982;2022-08-01T08:12:46;2.38;;;1.80;;
71046;SDS011;58703;48.978;8.982;2022-08-01T08:15:13;2.93;;;1.30;;
71046;SDS011;58703;48.978;8.982;2022-08-01T08:17:39;3.28;;;1.45;;
71046;SDS011;58703;48.978;8.982;2022-08-01T08:20:05;3.07;;;1.70;;
71046;SDS011;58703;48.978;8.982;2022-08-01T08:22:32;2.50;;;1.63;;
71046;SDS011;58703;48.978;8.982;2022-08-01T08:24:57;1.60;;;1.50;;
71046;SDS011;58703;48.978;8.982;2022-08-01T08:27:23;3.33;;;1.43;;
71046;SDS011;58703;48.978;8.982;2022-08-01T08:29:49;1.58;;;1.48;;
71046;SDS011;58703;48.978;8.982;2022-08-01T08:32:15;2.90;;;1.10;;
71046;SDS011;58703;48.978;8.982;2022-08-01T08:34:40;2.85;;;1.90;;
71046;SDS011;58703;48.978;8.982;2022-08-01T08:37:06;2.00;;;1.83;;
71046;SDS011;58703;48.978;8.982;2022-08-01T08:39:32;2.07;;;1.80;;
71046;SDS011;58703;48.978;8.982;2022-08-01T08:42:01;4.95;;;1.83;;
71046;SDS011;58703;48.978;8.982;2022-08-01T08:44:31;2.22;;;2.00;;
71046;SDS011;58703;48.978;8.982;2022-08-01T08:46:57;3.50;;;2.40;;
71046;SDS011;58703;48.978;8.982;2022-08-01T08:49:24;2.95;;;2.70;;
71046;SDS011;58703;48.978;8.982;2022-08-01T08:51:52;5.43;;;3.40;;
71046;SDS011;58703;48.978;8.982;2022-08-01T08:54:19;5.45;;;3.72;;
71046;SDS011;58703;48.978;8.982;2022-08-01T08:56:47;4.18;;;3.75;;
71046;SDS011;58703;48.978;8.982;2022-08-01T08:59:14;6.83;;;3.63;;
71046;SDS011;58703;48.978;8.982;2022-08-01T09:01:40;4.38;;;3.30;;
71046;SDS011;58703;48.978;8.982;2022-08-01T09:04:07;3.80;;;3.20;;
71046;SDS011;58703;48.978;8.982;2022-08-01T09:06:32;3.40;;;3.00;;
71046;SDS011;58703;48.978;8.982;2022-08-01T09:08:58;3.45;;;2.65;;
71046;SDS011;58703;48.978;8.982;2022-08-01T09:11:24;6.03;;;2.97;;
71046;SDS011;58703;48.978;8.982;2022-08-01T09:16:35;4.93;;;2.20;;
71046;SDS011;58703;48.978;8.982;2022-08-01T09:19:06;3.97;;;2.37;;
71046;SDS011;58703;48.978;8.982;2022-08-01T09:21:32;3.70;;;2.30;;
71046;SDS011;58703;48.978;8.982;2022-08-01T09:23:58;3.15;;;2.53;;
71046;SDS011;58703;48.978;8.982;2022-08-01T09:28:54;3.13;;;2.50;;
71046;SDS011;58703;48.978;8.982;2022-08-01T09:31:19;2.93;;;2.20;;
71046;SDS011;58703;48.978;8.982;2022-08-01T09:33:48;3.58;;;2.40;;
71046;SDS011;58703;48.978;8.982;2022-08-01T09:36:23;5.55;;;2.75;;
71046;SDS011;58703;48.978;8.982;2022-08-01T09:38:50;3.13;;;2.30;;
71046;SDS011;58703;48.978;8.982;2022-08-01T09:41:17;3.10;;;2.07;;
71046;SDS011;58703;48.978;8.982;2022-08-01T09:43:53;2.10;;;1.90;;
71046;SDS011;58703;48.978;8.982;2022-08-01T09:46:18;2.63;;;2.00;;
71046;SDS011;58703;48.978;8.982;2022-08-01T09:49:03;2.67;;;2.47;;
71046;SDS011;58703;48.978;8.982;2022-08-01T09:51:34;2.35;;;1.80;;
71046;SDS011;58703;48.978;8.982;2022-08-01T09:54:02;3.75;;;1.60;;
71046;SDS011;58703;48.978;8.982;2022-08-01T09:56:38;2.13;;;1.70;;
71046;SDS011;58703;48.978;8.982;2022-08-01T09:59:06;2.97;;;1.90;;
71046;SDS011;58703;48.978;8.982;2022-08-01T10:01:45;2.67;;;1.90;;
71046;SDS011;58703;48.978;8.982;2022-08-01T10:04:16;2.70;;;1.90;;
71046;SDS011;58703;48.978;8.982;2022-08-01T10:06:45;2.22;;;2.00;;
71046;SDS011;58703;48.978;8.982;2022-08-01T10:09:14;3.72;;;2.08;;
71046;SDS011;58703;48.978;8.982;2022-08-01T10:11:47;2.38;;;1.95;;
71046;SDS011;58703;48.978;8.982;2022-08-01T10:14:13;3.03;;;2.33;;
71046;SDS011;58703;48.978;8.982;2022-08-01T10:16:41;3.70;;;2.13;;
71046;SDS011;58703;48.978;8.982;2022-08-01T10:19:07;2.35;;;1.90;;
71046;SDS011;58703;48.978;8.982;2022-08-01T10:21:33;3.25;;;2.00;;
71046;SDS011;58703;48.978;8.982;2022-08-01T10:24:02;4.22;;;2.03;;
71046;SDS011;58703;48.978;8.982;2022-08-01T10:26:29;4.97;;;2.10;;
71046;SDS011;58703;48.978;8.982;2022-08-01T10:28:58;3.95;;;2.38;;
71046;SDS011;58703;48.978;8.982;2022-08-01T10:31:24;3.45;;;1.90;;
71046;SDS011;58703;48.978;8.982;2022-08-01T10:33:50;8.43;;;2.10;;
71046;SDS011;58703;48.978;8.982;2022-08-01T10:36:17;4.40;;;2.22;;
71046;SDS011;58703;48.978;8.982;2022-08-01T10:38:45;3.50;;;2.30;;
71046;SDS011;58703;48.978;8.982;2022-08-01T10:41:11;2.33;;;2.00;;
71046;SDS011;58703;48.978;8.982;2022-08-01T10:43:40;1.92;;;1.83;;
71046;SDS011;58703;48.978;8.982;2022-08-01T10:46:07;2.40;;;1.83;;
71046;SDS011;58703;48.978;8.982;2022-08-01T10:48:39;2.22;;;1.70;;
71046;SDS011;58703;48.978;8.982;2022-08-01T10:51:10;3.30;;;1.95;;
71046;SDS011;58703;48.978;8.982;2022-08-01T10:53:37;2.30;;;1.92;;
71046;SDS011;58703;48.978;8.982;2022-08-01T10:56:12;2.37;;;1.70;;
71046;SDS011;58703;48.978;8.982;2022-08-01T10:58:38;2.38;;;2.17;;
71046;SDS011;58703;48.978;8.982;2022-08-01T11:01:13;5.13;;;1.88;;
71046;SDS011;58703;48.978;8.982;2022-08-01T11:04:07;2.37;;;1.60;;
71046;SDS011;58703;48.978;8.982;2022-08-01T11:08:59;1.93;;;1.67;;
71046;SDS011;58703;48.978;8.982;2022-08-01T11:11:28;3.37;;;1.70;;
71046;SDS011;58703;48.978;8.982;2022-08-01T11:16:26;1.92;;;1.38;;
71046;SDS011;58703;48.978;8.982;2022-08-01T11:18:53;1.85;;;1.63;;
71046;SDS011;58703;48.978;8.982;2022-08-01T11:21:19;1.90;;;1.57;;
71046;SDS011;58703;48.978;8.982;2022-08-01T11:23:49;3.08;;;1.58;;
71046;SDS011;58703;48.978;8.982;2022-08-01T11:26:19;1.52;;;1.42;;
71046;SDS011;58703;48.978;8.982;2022-08-01T11:29:11;1.20;;;1.20;;
71046;SDS011;58703;48.978;8.982;2022-08-01T11:31:36;5.75;;;1.98;;
71046;SDS011;58703;48.978;8.982;2022-08-01T11:34:02;3.30;;;1.37;;
71046;SDS011;58703;48.978;8.982;2022-08-01T11:36:28;1.67;;;1.58;;
71046;SDS011;58703;48.978;8.982;2022-08-01T11:41:29;1.92;;;1.80;;
71046;SDS011;58703;48.978;8.982;2022-08-01T11:52:00;1.70;;;1.60;;
71046;SDS011;58703;48.978;8.982;2022-08-01T11:54:35;4.20;;;1.80;;
71046;SDS011;58703;48.978;8.982;2022-08-01T11:57:04;2.70;;;1.60;;
71046;SDS011;58703;48.978;8.982;2022-08-01T11:59:51;3.30;;;1.95;;
71046;SDS011;58703;48.978;8.982;2022-08-01T12:02:23;3.40;;;2.38;;
71046;SDS011;58703;48.978;8.982;2022-08-01T12:04:51;1.87;;;1.77;;
71046;SDS011;58703;48.978;8.982;2022-08-01T12:07:21;1.80;;;1.40;;
71046;SDS011;58703;48.978;8.982;2022-08-01T12:09:47;2.17;;;1.50;;
71046;SDS011;58703;48.978;8.982;2022-08-01T12:12:17;1.25;;;1.10;;
71046;SDS011;58703;48.978;8.982;2022-08-01T12:14:44;1.77;;;1.67;;
71046;SDS011;58703;48.978;8.982;2022-08-01T12:17:11;1.43;;;1.33;;
71046;SDS011;58703;48.978;8.982;2022-08-01T12:19:36;2.22;;;1.85;;
71046;SDS011;58703;48.978;8.982;2022-08-01T12:22:09;1.50;;;1.40;;
71046;SDS011;58703;48.978;8.982;2022-08-01T12:24:39;1.50;;;1.40;;
71046;SDS011;58703;48.978;8.982;2022-08-01T12:27:07;1.65;;;1.55;;
71046;SDS011;58703;48.978;8.982;2022-08-01T12:29:40;1.90;;;1.75;;
71046;SDS011;58703;48.978;8.982;2022-08-01T12:34:56;2.05;;;1.95;;
71046;SDS011;58703;48.978;8.982;2022-08-01T12:37:40;3.03;;;1.70;;
71046;SDS011;58703;48.978;8.982;2022-08-01T12:42:37;1.50;;;1.40;;
71046;SDS011;58703;48.978;8.982;2022-08-01T12:45:05;2.00;;;1.43;;
71046;SDS011;58703;48.978;8.982;2022-08-01T12:47:33;1.73;;;1.63;;
71046;SDS011;58703;48.978;8.982;2022-08-01T12:50:00;4.95;;;1.58;;
71046;SDS011;58703;48.978;8.982;2022-08-01T12:52:26;1.48;;;1.30;;
71046;SDS011;58703;48.978;8.982;2022-08-01T12:55:02;2.43;;;1.27;;
71046;SDS011;58703;48.978;8.982;2022-08-01T12:57:31;2.05;;;1.65;;
71046;SDS011;58703;48.978;8.982;2022-08-01T13:02:36;2.10;;;1.43;;
71046;SDS011;58703;48.978;8.982;2022-08-01T13:05:02;1.77;;;1.67;;
71046;SDS011;58703;48.978;8.982;2022-08-01T13:07:35;6.35;;;1.70;;
71046;SDS011;58703;48.978;8.982;2022-08-01T13:10:06;1.88;;;1.58;;
71046;SDS011;58703;48.978;8.982;2022-08-01T13:12:33;2.17;;;2.07;;
71046;SDS011;58703;48.978;8.982;2022-08-01T13:14:59;2.75;;;1.60;;
71046;SDS011;58703;48.978;8.982;2022-08-01T13:17:38;2.28;;;1.42;;
71046;SDS011;58703;48.978;8.982;2022-08-01T13:20:05;2.15;;;1.40;;
71046;SDS011;58703;48.978;8.982;2022-08-01T13:22:31;1.70;;;1.60;;
71046;SDS011;58703;48.978;8.982;2022-08-01T13:25:11;2.33;;;1.27;;
71046;SDS011;58703;48.978;8.982;2022-08-01T13:27:38;1.50;;;1.38;;
71046;SDS011;58703;48.978;8.982;2022-08-01T13:30:10;1.83;;;1.73;;
71046;SDS011;58703;48.978;8.982;2022-08-01T13:32:36;2.08;;;1.80;;
71046;SDS011;58703;48.978;8.982;2022-08-01T13:35:03;2.17;;;2.07;;
71046;SDS011;58703;48.978;8.982;2022-08-01T13:37:29;1.85;;;1.75;;
71046;SDS011;58703;48.978;8.982;2022-08-01T13:39:55;1.73;;;1.63;;
71046;SDS011;58703;48.978;8.982;2022-08-01T13:42:21;2.17;;;2.00;;
71046;SDS011;58703;48.978;8.982;2022-08-01T13:44:46;3.43;;;2.40;;
71046;SDS011;58703;48.978;8.982;2022-08-01T13:47:12;2.50;;;1.70;;
71046;SDS011;58703;48.978;8.982;2022-08-01T13:49:37;2.60;;;1.60;;
71046;SDS011;58703;48.978;8.982;2022-08-01T13:52:04;1.70;;;1.60;;
71046;SDS011;58703;48.978;8.982;2022-08-01T13:54:33;2.13;;;1.90;;
71046;SDS011;58703;48.978;8.982;2022-08-01T13:56:59;4.25;;;1.80;;
71046;SDS011;58703;48.978;8.982;2022-08-01T13:59:25;8.10;;;2.25;;
71046;SDS011;58703;48.978;8.982;2022-08-01T14:01:50;1.87;;;1.63;;
71046;SDS011;58703;48.978;8.982;2022-08-01T14:04:16;2.20;;;1.40;;
71046;SDS011;58703;48.978;8.982;2022-08-01T14:06:42;1.40;;;1.30;;
71046;SDS011;58703;48.978;8.982;2022-08-01T14:09:07;2.73;;;1.60;;
71046;SDS011;58703;48.978;8.982;2022-08-01T14:11:33;2.75;;;1.88;;
71046;SDS011;58703;48.978;8.982;2022-08-01T14:13:58;3.27;;;2.27;;
71046;SDS011;58703;48.978;8.982;2022-08-01T14:16:24;3.50;;;2.13;;
71046;SDS011;58703;48.978;8.982;2022-08-01T14:18:50;1.90;;;1.80;;
71046;SDS011;58703;48.978;8.982;2022-08-01T14:21:15;1.60;;;1.50;;
71046;SDS011;58703;48.978;8.982;2022-08-01T14:23:41;2.60;;;1.55;;
71046;SDS011;58703;48.978;8.982;2022-08-01T14:26:10;3.10;;;1.27;;
71046;SDS011;58703;48.978;8.982;2022-08-01T14:28:35;3.33;;;2.63;;
71046;SDS011;58703;48.978;8.982;2022-08-01T14:31:02;2.20;;;1.60;;
71046;SDS011;58703;48.978;8.982;2022-08-01T14:33:28;3.15;;;1.60;;
71046;SDS011;58703;48.978;8.982;2022-08-01T14:35:54;1.87;;;1.13;;
71046;SDS011;58703;48.978;8.982;2022-08-01T14:38:20;3.45;;;1.17;;
71046;SDS011;58703;48.978;8.982;2022-08-01T14:40:46;1.35;;;1.20;;
71046;SDS011;58703;48.978;8.982;2022-08-01T14:43:16;1.53;;;1.43;;
71046;SDS011;58703;48.978;8.982;2022-08-01T14:45:43;11.52;;;2.10;;
71046;SDS011;58703;48.978;8.982;2022-08-01T14:48:09;1.33;;;1.25;;
71046;SDS011;58703;48.978;8.982;2022-08-01T14:50:34;1.40;;;1.30;;
71046;SDS011;58703;48.978;8.982;2022-08-01T14:53:00;2.05;;;1.70;;
71046;SDS011;58703;48.978;8.982;2022-08-01T14:55:26;1.93;;;1.83;;
71046;SDS011;58703;48.978;8.982;2022-08-01T14:57:52;2.30;;;2.15;;
71046;SDS011;58703;48.978;8.982;2022-08-01T15:00:18;1.67;;;1.58;;
71046;SDS011;58703;48.978;8.982;2022-08-01T15:02:45;2.15;;;1.70;;
71046;SDS011;58703;48.978;8.982;2022-08-01T15:05:10;2.07;;;1.87;;
71046;SDS011;58703;48.978;8.982;2022-08-01T15:07:37;2.08;;;1.98;;
71046;SDS011;58703;48.978;8.982;2022-08-01T15:10:03;2.60;;;2.40;;
71046;SDS011;58703;48.978;8.982;2022-08-01T15:12:29;2.10;;;2.00;;
71046;SDS011;58703;48.978;8.982;2022-08-01T15:14:55;2.00;;;1.90;;
71046;SDS011;58703;48.978;8.982;2022-08-01T15:17:21;1.80;;;1.70;;
71046;SDS011;58703;48.978;8.982;2022-08-01T15:19:55;2.13;;;1.92;;
71046;SDS011;58703;48.978;8.982;2022-08-01T15:22:21;2.42;;;1.38;;
71046;SDS011;58703;48.978;8.982;2022-08-01T15:24:48;2.40;;;1.30;;
71046;SDS011;58703;48.978;8.982;2022-08-01T15:27:14;1.13;;;1.13;;
71046;SDS011;58703;48.978;8.982;2022-08-01T15:29:40;1.58;;;0.90;;
71046;SDS011;58703;48.978;8.982;2022-08-01T15:32:06;1.57;;;1.30;;